Time;durP1;ratioP1;P1;durP2;ratioP2;P2;SDS_P1;SDS_P2;PMS_P1;PMS_P2;Temp;Humidity;BMP_temperature;BMP_pressure;BME280_temperature;BME280_humidity;BME280_pressure;Samples;Min_cycle;Max_cycle;Signal;HPM_P1;HPM_P2
2022/10/02 00:00:30;;;;;;;8.10;1.92;;;;;;;15.32;65.61;100718.44;5033671;28;98102;-67
2022/10/02 00:03:03;;;;;;;11.77;2.20;;;;;;;15.13;66.16;100723.06;5033016;28;97103;-67
2022/10/02 00:05:36;;;;;;;5.75;1.65;;;;;;;15.27;65.77;100727.63;5029637;28;96823;-66
2022/10/02 00:08:10;;;;;;;10.73;2.70;;;;;;;15.45;64.98;100732.78;5033957;28;98145;-67
2022/10/02 00:10:43;;;;;;;16.38;1.98;;;;;;;15.46;64.96;100739.84;5031435;27;99029;-67
2022/10/02 00:13:18;;;;;;;15.90;2.42;;;;;;;15.44;64.98;100736.41;5026801;27;96825;-67
2022/10/02 00:15:46;;;;;;;7.53;1.52;;;;;;;15.46;65.07;100737.19;5032582;28;98066;-66
2022/10/02 00:18:22;;;;;;;10.68;1.73;;;;;;;15.55;64.46;100733.19;5032274;28;99643;-67
2022/10/02 00:21:03;;;;;;;8.10;1.92;;;;;;;15.45;64.77;100740.78;5032034;28;97533;-66
2022/10/02 00:23:37;;;;;;;9.85;2.10;;;;;;;15.22;65.55;100733.22;5032318;28;97085;-66
2022/10/02 00:26:09;;;;;;;10.55;1.67;;;;;;;15.33;65.45;100736.13;5027714;28;96832;-67
2022/10/02 00:28:44;;;;;;;6.53;1.80;;;;;;;15.25;65.55;100730.38;5030730;27;99427;-67
2022/10/02 00:31:30;;;;;;;8.65;2.17;;;;;;;15.31;65.27;100731.81;5029808;27;97754;-66
2022/10/02 00:34:18;;;;;;;9.23;1.88;;;;;;;15.41;64.93;100744.56;5028069;28;96817;-66
2022/10/02 00:36:58;;;;;;;6.75;1.73;;;;;;;15.38;65.27;100741.19;5025999;28;96780;-66
2022/10/02 00:39:40;;;;;;;11.00;2.38;;;;;;;15.31;65.35;100747.81;5025926;28;99378;-66
2022/10/02 00:42:48;;;;;;;11.80;1.90;;;;;;;15.32;65.36;100745.06;5029955;28;98915;-66
2022/10/02 00:45:38;;;;;;;13.93;1.75;;;;;;;15.41;64.98;100746.38;5001257;27;97069;-66
2022/10/02 00:48:21;;;;;;;7.80;1.95;;;;;;;15.41;64.97;100743.72;5033052;27;96819;-65
2022/10/02 00:50:58;;;;;;;7.10;1.45;;;;;;;15.43;65.04;100744.47;5027241;28;98315;-67
2022/10/02 00:53:34;;;;;;;9.00;2.15;;;;;;;15.38;64.90;100744.72;5029068;28;102052;-67
2022/10/02 00:56:12;;;;;;;8.65;1.83;;;;;;;15.17;65.53;100756.53;5032539;27;96878;-66
2022/10/02 00:59:05;;;;;;;16.83;2.53;;;;;;;15.22;65.29;100754.50;5032805;28;96807;-66
2022/10/02 01:01:41;;;;;;;11.57;2.33;;;;;;;15.18;65.61;100752.06;5025745;28;99008;-65
2022/10/02 01:04:11;;;;;;;15.27;2.50;;;;;;;15.29;65.22;100755.91;5031840;28;99361;-66
2022/10/02 01:06:37;;;;;;;6.82;1.55;;;;;;;15.29;64.80;100760.34;5032731;27;96712;-66
2022/10/02 01:09:06;;;;;;;11.88;2.10;;;;;;;15.17;65.18;100772.50;5032020;28;96846;-65
2022/10/02 01:11:36;;;;;;;8.13;2.22;;;;;;;15.14;65.50;100770.03;5026936;28;99271;-67
2022/10/02 01:14:07;;;;;;;9.85;1.80;;;;;;;15.21;64.85;100768.75;5028099;28;98146;-68
2022/10/02 01:16:34;;;;;;;14.80;1.88;;;;;;;15.30;64.79;100767.38;5030556;28;96805;-65
2022/10/02 01:19:03;;;;;;;11.30;2.00;;;;;;;15.27;64.61;100779.06;5032793;27;96855;-65
2022/10/02 01:21:36;;;;;;;12.35;2.17;;;;;;;15.13;65.04;100773.63;5035837;27;98361;-66
2022/10/02 01:24:12;;;;;;;11.93;1.52;;;;;;;15.21;64.73;100776.75;5031308;28;99282;-66
2022/10/02 01:26:45;;;;;;;11.18;1.85;;;;;;;15.02;65.36;100774.22;5030325;28;96757;-66
2022/10/02 01:29:14;;;;;;;8.13;1.63;;;;;;;15.15;65.01;100782.41;5026344;28;97001;-66
2022/10/02 01:31:42;;;;;;;10.55;1.55;;;;;;;14.94;65.55;100780.88;5027867;28;101560;-66
2022/10/02 01:34:12;;;;;;;12.63;1.80;;;;;;;14.99;65.11;100786.81;5028214;28;99342;-65
2022/10/02 01:36:39;;;;;;;17.83;2.20;;;;;;;15.14;64.77;100792.19;5033428;27;96867;-66
2022/10/02 01:39:09;;;;;;;6.95;2.22;;;;;;;15.18;64.62;100794.66;5031615;27;97168;-66
2022/10/02 01:41:43;;;;;;;12.15;1.77;;;;;;;15.00;65.06;100799.19;5031120;28;100068;-66
2022/10/02 01:44:12;;;;;;;10.80;1.95;;;;;;;14.94;65.31;100799.50;5030750;28;99497;-68
2022/10/02 01:46:51;;;;;;;13.88;2.55;;;;;;;14.93;65.31;100795.97;5031273;28;96859;-65
2022/10/02 01:49:38;;;;;;;12.05;1.92;;;;;;;14.80;65.71;100805.53;5021343;28;97041;-66
2022/10/02 01:52:18;;;;;;;12.95;1.67;;;;;;;14.76;65.92;100809.31;5030221;27;98524;-66
2022/10/02 01:55:02;;;;;;;9.20;1.73;;;;;;;14.87;65.60;100809.59;5030403;28;98041;-66
2022/10/02 01:57:44;;;;;;;12.23;1.98;;;;;;;14.97;64.90;100802.84;5028865;28;96759;-65
2022/10/02 02:00:16;;;;;;;12.85;1.60;;;;;;;15.13;64.51;100809.09;5027930;28;96943;-66
2022/10/02 02:02:57;;;;;;;13.23;2.08;;;;;;;15.18;64.16;100800.84;5026633;28;98954;-67
2022/10/02 02:05:34;;;;;;;14.77;1.77;;;;;;;15.00;64.64;100801.84;5024307;28;98845;-66
2022/10/02 02:08:10;;;;;;;13.18;2.10;;;;;;;15.05;64.56;100810.44;5036842;27;96913;-67
2022/10/02 02:10:49;;;;;;;8.73;1.75;;;;;;;14.83;65.18;100810.72;5032486;27;96820;-66
2022/10/02 02:13:31;;;;;;;15.20;2.25;;;;;;;15.08;64.50;100815.59;5030685;28;99308;-66
2022/10/02 02:16:03;;;;;;;15.85;2.10;;;;;;;15.01;64.80;100814.22;5028914;28;98915;-66
2022/10/02 02:18:42;;;;;;;11.02;1.73;;;;;;;15.10;64.37;100819.88;5027588;28;97913;-66
2022/10/02 02:21:15;;;;;;;13.20;1.80;;;;;;;15.08;64.43;100820.94;5031837;27;96790;-66
2022/10/02 02:23:46;;;;;;;16.02;2.33;;;;;;;15.09;64.24;100822.66;5031953;27;101704;-67
2022/10/02 02:26:17;;;;;;;10.27;2.63;;;;;;;15.07;64.27;100819.19;5032298;27;98807;-66
2022/10/02 02:28:50;;;;;;;12.32;1.98;;;;;;;14.90;64.68;100830.72;5034822;28;97916;-66
2022/10/02 02:31:24;;;;;;;10.95;1.73;;;;;;;15.01;64.35;100830.16;5033232;28;96860;-65
2022/10/02 02:33:57;;;;;;;17.60;2.00;;;;;;;15.04;64.35;100830.00;5031804;28;99102;-65
2022/10/02 02:36:28;;;;;;;15.27;1.88;;;;;;;15.05;64.35;100829.06;5031046;28;98930;-66
2022/10/02 02:39:03;;;;;;;17.70;2.33;;;;;;;15.10;63.96;100835.00;5029591;28;96811;-66
2022/10/02 02:41:39;;;;;;;20.17;2.15;;;;;;;14.99;64.42;100832.91;5037697;27;96926;-66
2022/10/02 02:44:11;;;;;;;10.40;2.00;;;;;;;14.94;64.54;100829.63;5032856;27;99211;-65
2022/10/02 02:49:24;;;;;;;13.32;1.92;;;;;;;15.11;63.94;100832.25;5033622;28;96872;-67
2022/10/02 02:51:58;;;;;;;20.13;2.35;;;;;;;15.08;63.71;100835.09;5031817;28;96909;-67
2022/10/02 02:54:40;;;;;;;21.15;2.25;;;;;;;14.98;64.26;100838.28;5027680;28;99378;-66
2022/10/02 02:57:14;;;;;;;10.88;1.85;;;;;;;14.99;64.16;100838.22;5028591;28;98943;-66
2022/10/02 02:59:46;;;;;;;11.80;2.15;;;;;;;14.88;64.52;100845.06;5027711;27;97015;-65
2022/10/02 03:02:14;;;;;;;7.75;2.10;;;;;;;14.95;64.47;100846.47;5033847;27;96878;-67
2022/10/02 03:04:42;;;;;;;7.05;1.60;;;;;;;14.81;64.89;100849.81;5027591;28;98182;-66
2022/10/02 03:07:16;;;;;;;11.75;1.58;;;;;;;14.95;64.46;100843.78;5033893;27;99393;-66
2022/10/02 03:09:54;;;;;;;12.90;2.00;;;;;;;15.04;63.95;100837.97;5034032;28;97693;-66
2022/10/02 03:12:32;;;;;;;11.88;1.73;;;;;;;15.02;64.13;100847.88;5031835;27;96675;-67
2022/10/02 03:15:15;;;;;;;14.05;2.20;;;;;;;14.91;64.63;100844.88;5031594;27;99341;-66
2022/10/02 03:18:01;;;;;;;21.02;3.30;;;;;;;14.94;64.44;100850.06;5030024;28;98190;-66
2022/10/02 03:20:38;;;;;;;16.15;2.10;;;;;;;14.79;64.74;100851.69;5030095;28;96891;-66
2022/10/02 03:23:15;;;;;;;9.93;2.05;;;;;;;14.83;64.81;100857.75;5033866;27;97130;-66
2022/10/02 03:25:50;;;;;;;9.50;2.08;;;;;;;14.88;64.52;100855.69;5031475;27;98573;-66
2022/10/02 03:28:24;;;;;;;18.17;1.88;;;;;;;15.08;63.65;100855.53;5031436;28;101586;-66
2022/10/02 03:30:55;;;;;;;12.30;1.80;;;;;;;15.08;63.87;100860.84;5033065;27;97395;-66
2022/10/02 03:33:23;;;;;;;12.50;2.22;;;;;;;15.13;63.53;100857.00;5027056;28;96876;-66
2022/10/02 03:35:51;;;;;;;18.83;2.85;;;;;;;15.00;63.87;100845.28;5026236;28;99055;-67
2022/10/02 03:38:18;;;;;;;9.18;1.65;;;;;;;15.01;64.06;100862.97;5032668;28;99732;-66
2022/10/02 03:40:47;;;;;;;13.43;2.03;;;;;;;14.96;64.08;100857.03;5027240;28;96860;-66
2022/10/02 03:43:21;;;;;;;10.15;1.75;;;;;;;14.89;64.26;100860.94;5028456;28;97863;-66
2022/10/02 03:45:47;;;;;;;8.15;1.75;;;;;;;14.92;63.91;100851.94;5029983;27;98592;-66
2022/10/02 03:48:16;;;;;;;14.20;1.75;;;;;;;15.14;63.52;100857.88;5042003;27;99031;-66
2022/10/02 03:50:46;;;;;;;13.98;2.50;;;;;;;15.03;63.76;100853.06;5022477;28;96809;-66
2022/10/02 03:53:15;;;;;;;14.25;2.03;;;;;;;14.84;64.29;100851.44;5032181;28;96841;-67
2022/10/02 03:55:46;;;;;;;13.68;1.67;;;;;;;14.72;64.69;100845.81;5023917;27;99264;-66
2022/10/02 03:58:14;;;;;;;15.25;2.10;;;;;;;14.92;64.02;100854.59;5029373;27;98728;-67
2022/10/02 04:00:46;;;;;;;12.77;1.77;;;;;;;14.94;63.98;100860.69;5033468;27;97073;-67
2022/10/02 04:03:20;;;;;;;10.73;1.80;;;;;;;14.80;64.44;100853.41;5027877;27;96861;-66
2022/10/02 04:05:55;;;;;;;8.68;1.52;;;;;;;14.94;64.02;100858.03;5039107;27;99465;-65
2022/10/02 04:08:27;;;;;;;11.55;1.95;;;;;;;14.91;64.03;100847.53;5030954;27;98828;-66
2022/10/02 04:10:59;;;;;;;11.98;1.40;;;;;;;14.96;63.80;100858.81;5027950;27;96771;-66
2022/10/02 04:13:32;;;;;;;11.90;1.77;;;;;;;14.88;64.10;100845.91;5031064;28;96806;-67
2022/10/02 04:16:07;;;;;;;13.70;1.67;;;;;;;14.82;64.20;100851.56;5029242;28;102105;-65
2022/10/02 04:18:40;;;;;;;11.03;1.83;;;;;;;14.80;64.40;100852.56;5029630;28;99258;-66
2022/10/02 04:21:12;;;;;;;9.50;1.63;;;;;;;14.84;64.14;100854.09;5032761;27;97311;-65
2022/10/02 04:23:44;;;;;;;8.13;1.52;;;;;;;14.83;64.42;100863.06;5033568;27;97073;-65
2022/10/02 04:26:17;;;;;;;13.00;1.63;;;;;;;14.65;64.81;100863.03;5032095;28;99927;-65
2022/10/02 04:28:51;;;;;;;10.48;1.50;;;;;;;14.72;64.71;100867.09;5032376;27;99483;-65
2022/10/02 04:31:17;;;;;;;13.63;1.88;;;;;;;14.95;64.19;100875.72;5028967;28;96791;-65
2022/10/02 04:33:45;;;;;;;11.75;1.80;;;;;;;14.86;64.41;100870.88;5032708;28;96917;-66
2022/10/02 04:36:32;;;;;;;15.80;1.90;;;;;;;15.02;63.51;100864.69;5030162;27;99312;-66
2022/10/02 04:39:23;;;;;;;10.45;1.88;;;;;;;15.12;63.48;100865.06;5031672;27;99320;-66
2022/10/02 04:42:05;;;;;;;11.32;2.72;;;;;;;14.93;63.80;100869.63;5029266;28;96853;-66
2022/10/02 04:44:53;;;;;;;13.77;2.25;;;;;;;14.86;64.00;100860.22;5030093;28;97201;-66
2022/10/02 04:47:41;;;;;;;6.93;1.70;;;;;;;15.10;63.48;100866.94;5031678;28;98548;-66
2022/10/02 04:50:29;;;;;;;9.50;1.35;;;;;;;15.25;62.86;100868.78;5029114;27;98897;-66
2022/10/02 04:53:21;;;;;;;14.50;2.08;;;;;;;15.29;62.59;100873.03;5031738;27;97352;-65
2022/10/02 04:56:02;;;;;;;8.48;1.23;;;;;;;15.36;62.31;100865.59;5033789;27;96718;-66
2022/10/02 04:59:00;;;;;;;8.63;1.38;;;;;;;15.35;62.50;100870.03;5030609;28;98292;-66
2022/10/02 05:01:36;;;;;;;11.98;1.98;;;;;;;15.30;62.86;100863.22;5029767;28;99347;-66
2022/10/02 05:04:19;;;;;;;8.85;1.88;;;;;;;15.33;62.97;100869.25;5031506;28;97055;-66
2022/10/02 05:07:03;;;;;;;8.93;1.55;;;;;;;15.24;63.81;100867.06;5032376;28;96953;-66
2022/10/02 05:09:33;;;;;;;8.07;1.35;;;;;;;15.30;63.80;100871.19;5029242;28;99238;-66
2022/10/02 05:12:22;;;;;;;9.25;1.88;;;;;;;15.37;63.66;100876.13;5029149;27;98780;-65
2022/10/02 05:15:03;;;;;;;6.93;1.02;;;;;;;15.29;63.79;100878.34;5022191;27;96801;-65
2022/10/02 05:17:57;;;;;;;11.93;1.50;;;;;;;15.49;63.04;100875.47;5030928;28;96868;-65
2022/10/02 05:20:38;;;;;;;9.15;1.35;;;;;;;15.52;62.70;100880.69;5027234;28;101244;-66
2022/10/02 05:23:23;;;;;;;12.45;1.80;;;;;;;15.38;63.22;100877.00;5029658;28;100634;-66
2022/10/02 05:26:15;;;;;;;6.80;1.75;;;;;;;15.33;63.47;100879.91;5028241;28;96937;-66
2022/10/02 05:29:01;;;;;;;6.22;1.30;;;;;;;15.36;63.39;100879.72;5033561;27;96873;-66
2022/10/02 05:31:40;;;;;;;10.35;2.08;;;;;;;15.24;63.29;100896.34;5029591;28;98255;-65
2022/10/02 05:34:21;;;;;;;8.48;1.63;;;;;;;15.37;63.35;100891.25;5031144;28;98921;-65
2022/10/02 05:37:10;;;;;;;11.05;1.75;;;;;;;15.37;63.41;100893.91;5029825;28;96873;-65
2022/10/02 05:39:46;;;;;;;6.78;1.50;;;;;;;15.27;63.51;100896.22;5026342;28;96869;-66
2022/10/02 05:42:22;;;;;;;9.70;1.30;;;;;;;15.27;63.58;100901.53;5030601;28;99402;-65
2022/10/02 05:44:57;;;;;;;8.97;1.27;;;;;;;15.26;63.82;100893.63;5036130;27;100106;-64
2022/10/02 05:47:28;;;;;;;7.30;1.17;;;;;;;15.16;63.93;100894.09;5030179;28;96836;-65
2022/10/02 05:49:58;;;;;;;7.65;1.73;;;;;;;15.29;64.00;100894.34;5031188;27;96781;-66
2022/10/02 05:52:32;;;;;;;11.98;1.67;;;;;;;15.45;63.34;100897.88;5029706;28;101177;-65
2022/10/02 05:55:11;;;;;;;8.52;1.42;;;;;;;15.69;62.55;100898.41;5030638;27;99026;-66
2022/10/02 05:57:42;;;;;;;14.38;2.00;;;;;;;15.80;62.51;100905.81;5034006;28;96784;-67
2022/10/02 06:00:30;;;;;;;11.15;1.70;;;;;;;16.03;61.75;100905.41;5033264;27;96706;-66
2022/10/02 06:03:06;;;;;;;13.15;1.30;;;;;;;16.05;61.42;100906.19;5031458;28;98979;-66
2022/10/02 06:05:43;;;;;;;9.82;1.23;;;;;;;15.94;62.34;100904.13;5031850;28;99051;-69
2022/10/02 06:08:14;;;;;;;8.45;1.50;;;;;;;15.69;63.95;100902.88;5031387;28;97559;-66
2022/10/02 06:10:48;;;;;;;11.13;1.77;;;;;;;15.93;64.18;100896.22;5031648;27;96841;-67
2022/10/02 06:13:22;;;;;;;13.80;2.58;;;;;;;15.62;65.48;100914.81;5027239;28;100593;-65
2022/10/02 06:15:52;;;;;;;10.02;1.80;;;;;;;15.53;66.29;100910.84;5033173;28;99473;-66
2022/10/02 06:18:22;;;;;;;9.13;1.73;;;;;;;15.46;66.63;100910.28;5037072;27;98209;-65
2022/10/02 06:20:53;;;;;;;13.93;2.10;;;;;;;15.71;66.18;100911.63;5034933;27;96777;-66
2022/10/02 06:23:31;;;;;;;9.07;1.92;;;;;;;15.79;65.33;100910.28;5034312;28;98966;-66
2022/10/02 06:26:03;;;;;;;9.88;2.15;;;;;;;16.19;64.48;100898.28;5031724;28;98806;-65
2022/10/02 06:28:37;;;;;;;10.88;2.00;;;;;;;16.15;64.32;100911.84;5032866;28;96904;-66
2022/10/02 06:31:12;;;;;;;9.65;1.92;;;;;;;16.04;64.73;100911.59;5031238;27;96828;-66
2022/10/02 06:33:38;;;;;;;7.93;1.67;;;;;;;16.01;64.93;100917.97;5032321;27;99631;-66
2022/10/02 06:36:30;;;;;;;8.90;1.98;;;;;;;15.93;65.49;100917.53;5036564;27;98955;-65
2022/10/02 06:39:16;;;;;;;12.20;1.73;;;;;;;16.09;64.83;100917.53;5033289;28;97217;-66
2022/10/02 06:41:56;;;;;;;12.98;1.80;;;;;;;16.13;64.56;100924.44;5029759;28;96820;-65
2022/10/02 06:44:31;;;;;;;10.85;2.30;;;;;;;16.23;64.29;100925.63;5030766;28;98861;-66
2022/10/02 06:47:13;;;;;;;12.55;2.53;;;;;;;16.21;64.38;100932.88;5033837;28;98925;-67
2022/10/02 06:49:56;;;;;;;12.73;2.70;;;;;;;16.25;63.95;100932.59;5030855;28;97551;-66
2022/10/02 06:52:36;;;;;;;13.98;2.17;;;;;;;16.07;64.49;100936.31;5036153;27;96889;-65
2022/10/02 06:55:31;;;;;;;10.65;1.98;;;;;;;16.26;64.10;100931.66;5031934;27;98675;-67
2022/10/02 06:58:16;;;;;;;9.40;2.30;;;;;;;16.43;63.76;100928.03;5033020;27;100132;-65
2022/10/02 07:00:50;;;;;;;10.50;2.17;;;;;;;16.57;63.31;100924.56;5029370;28;97145;-66
2022/10/02 07:03:41;;;;;;;9.18;2.35;;;;;;;16.61;62.71;100921.66;5032129;28;96721;-66
2022/10/02 07:06:13;;;;;;;9.15;2.58;;;;;;;16.87;62.09;100933.50;5029853;27;97860;-67
2022/10/02 07:09:10;;;;;;;11.57;2.70;;;;;;;16.30;63.33;100927.00;5032992;27;99364;-66
2022/10/02 07:11:48;;;;;;;7.53;2.03;;;;;;;16.57;63.03;100925.44;5027207;27;98152;-65
2022/10/02 07:14:30;;;;;;;10.30;2.42;;;;;;;16.57;63.00;100924.56;5034680;28;97237;-66
2022/10/02 07:17:22;;;;;;;16.58;3.47;;;;;;;16.38;63.20;100923.91;5030323;27;99299;-66
2022/10/02 07:20:04;;;;;;;12.70;3.03;;;;;;;16.43;63.08;100927.16;5030485;28;99897;-65
2022/10/02 07:22:42;;;;;;;13.52;2.53;;;;;;;16.35;63.10;100925.78;5033784;28;96781;-65
2022/10/02 07:25:49;;;;;;;6.70;2.15;;;;;;;16.40;63.24;100924.69;5032596;27;96979;-65
2022/10/02 07:28:25;;;;;;;15.60;3.08;;;;;;;16.49;62.89;100929.47;5032953;27;99177;-65
2022/10/02 07:31:02;;;;;;;16.52;2.78;;;;;;;16.68;62.07;100935.50;5033162;28;98959;-66
2022/10/02 07:33:43;;;;;;;13.43;2.80;;;;;;;16.68;62.05;100932.84;5034321;28;96784;-65
2022/10/02 07:36:13;;;;;;;9.30;2.50;;;;;;;16.57;62.73;100943.25;5032893;28;96743;-66
2022/10/02 07:38:54;;;;;;;14.43;3.10;;;;;;;16.88;61.69;100935.22;5026759;28;97922;-65
2022/10/02 07:41:38;;;;;;;8.93;2.70;;;;;;;17.07;61.17;100946.53;5031504;27;99478;-65
2022/10/02 07:44:20;;;;;;;13.07;2.50;;;;;;;17.12;60.86;100943.63;5032858;27;96857;-66
2022/10/02 07:46:58;;;;;;;14.80;3.03;;;;;;;17.13;60.93;100943.50;5032584;28;96943;-65
2022/10/02 07:49:38;;;;;;;15.10;3.45;;;;;;;17.43;59.87;100947.97;5029330;28;99140;-66
2022/10/02 07:52:19;;;;;;;12.27;3.25;;;;;;;17.27;60.30;100948.00;5031635;28;99046;-65
2022/10/02 07:55:15;;;;;;;13.77;2.90;;;;;;;17.06;60.17;100954.66;5031099;27;96867;-68
2022/10/02 07:57:54;;;;;;;14.47;3.50;;;;;;;16.84;61.66;100949.69;5028298;27;96929;-65
2022/10/02 08:00:24;;;;;;;18.23;3.17;;;;;;;17.48;60.10;100948.53;5030075;28;99307;-64
2022/10/02 08:03:01;;;;;;;16.00;3.20;;;;;;;17.84;58.67;100953.47;5032331;27;98820;-66
2022/10/02 08:05:33;;;;;;;18.40;3.47;;;;;;;17.84;58.21;100965.03;5028254;28;98750;-68
2022/10/02 08:08:03;;;;;;;17.65;3.20;;;;;;;18.03;57.78;100959.38;5032464;28;96981;-66
2022/10/02 08:10:36;;;;;;;12.48;3.03;;;;;;;18.02;57.70;100957.66;5032992;27;99283;-67
2022/10/02 08:13:09;;;;;;;11.82;2.85;;;;;;;18.16;57.63;100951.44;5031794;27;99559;-66
2022/10/02 08:15:37;;;;;;;17.10;3.90;;;;;;;18.57;56.11;100957.72;5035108;27;96860;-65
2022/10/02 08:18:14;;;;;;;11.35;3.58;;;;;;;18.78;55.55;100951.88;5025498;28;97254;-65
2022/10/02 08:20:46;;;;;;;;;;;;;;;18.76;55.91;100954.69;5027629;28;98921;-66
2022/10/02 08:23:21;;;;;;;15.20;3.20;;;;;;;18.78;55.67;100949.19;5031902;28;98723;-65
2022/10/02 08:26:01;;;;;;;14.32;3.20;;;;;;;18.90;55.27;100946.59;5027709;28;96800;-66
2022/10/02 08:28:34;;;;;;;17.80;3.30;;;;;;;18.74;55.82;100947.69;5026452;27;96878;-67
2022/10/02 08:31:02;;;;;;;16.33;3.10;;;;;;;18.78;55.07;100946.50;5026253;27;99515;-67
2022/10/02 08:33:31;;;;;;;15.23;3.25;;;;;;;18.79;54.98;100933.03;5031265;28;98900;-66
2022/10/02 08:36:20;;;;;;;15.32;3.45;;;;;;;17.79;57.94;100943.03;5030685;28;96808;-67
2022/10/02 08:38:55;;;;;;;15.88;3.72;;;;;;;18.03;57.78;100942.47;5029465;28;96859;-66
2022/10/02 08:42:03;;;;;;;17.02;3.53;;;;;;;18.19;57.10;100938.72;5030997;27;98335;-67
2022/10/02 08:45:03;;;;;;;13.02;3.47;;;;;;;18.56;56.23;100939.94;4948530;28;101955;-66
2022/10/02 08:48:21;;;;;;;12.07;3.42;;;;;;;19.05;54.88;100933.97;4965984;27;97225;-65
2022/10/02 08:51:22;;;;;;;17.13;3.83;;;;;;;19.08;54.82;100944.47;5018545;28;98714;-66
2022/10/02 08:54:19;;;;;;;14.95;3.67;;;;;;;18.95;54.55;100940.91;5017674;27;98573;-68
2022/10/02 08:57:00;;;;;;;12.25;3.30;;;;;;;18.76;55.27;100935.06;5024225;27;100430;-67
2022/10/02 09:00:06;;;;;;;16.58;3.35;;;;;;;19.27;54.11;100931.56;5028934;28;97009;-67
2022/10/02 09:03:12;;;;;;;16.13;4.07;;;;;;;19.26;54.26;100931.66;5030521;28;97592;-68
2022/10/02 09:06:13;;;;;;;18.77;3.80;;;;;;;19.17;54.00;100933.13;5022481;27;98295;-67
2022/10/02 09:09:13;;;;;;;17.00;4.00;;;;;;;19.26;53.51;100932.50;5018884;27;100325;-67
2022/10/02 09:11:58;;;;;;;13.75;3.88;;;;;;;19.19;53.58;100933.03;5027903;27;96880;-66
2022/10/02 09:14:47;;;;;;;18.90;3.42;;;;;;;19.02;54.35;100945.75;5028094;28;96876;-66
2022/10/02 09:17:29;;;;;;;20.25;4.38;;;;;;;19.18;54.46;100940.19;5029158;27;97672;-67
2022/10/02 09:20:21;;;;;;;16.95;3.65;;;;;;;19.27;54.54;100936.91;5026609;28;99104;-67
2022/10/02 09:23:12;;;;;;;23.52;4.22;;;;;;;19.66;53.46;100940.50;5024055;27;97562;-66
2022/10/02 09:25:55;;;;;;;13.10;3.83;;;;;;;19.73;52.36;100941.78;5030971;27;96794;-66
2022/10/02 09:28:44;;;;;;;11.90;3.05;;;;;;;19.48;53.45;100939.97;5023858;27;99215;-65
2022/10/02 09:31:48;;;;;;;11.43;3.75;;;;;;;19.51;53.40;100937.06;5026639;27;101403;-66
2022/10/02 09:34:41;;;;;;;14.05;3.42;;;;;;;19.49;53.58;100934.47;5025239;28;96744;-67
2022/10/02 09:37:28;;;;;;;32.30;5.38;;;;;;;19.40;53.30;100929.75;5028843;28;96762;-67
2022/10/02 09:40:31;;;;;;;10.60;3.25;;;;;;;19.46;53.38;100931.16;5026149;27;99115;-66
2022/10/02 09:43:16;;;;;;;20.35;3.72;;;;;;;19.13;54.10;100920.91;5030150;27;99909;-68
2022/10/02 09:46:09;;;;;;;14.75;2.95;;;;;;;19.27;53.03;100918.16;5028987;27;96875;-66
2022/10/02 09:49:08;;;;;;;15.70;3.13;;;;;;;19.29;53.30;100915.38;5021621;28;97286;-68
2022/10/02 09:52:15;;;;;;;12.90;3.00;;;;;;;19.40;52.67;100900.25;5028124;28;98834;-67
2022/10/02 09:55:15;;;;;;;16.53;4.77;;;;;;;20.10;51.76;100897.09;5022510;28;98975;-66
2022/10/02 09:58:29;;;;;;;11.05;2.67;;;;;;;20.61;50.49;100903.19;5021484;27;97657;-67
2022/10/02 10:01:17;;;;;;;12.93;2.63;;;;;;;20.66;49.77;100911.75;5023597;28;97345;-67
2022/10/02 10:04:08;;;;;;;20.77;3.55;;;;;;;20.41;49.88;100903.81;5030072;27;97760;-67
2022/10/02 10:07:00;;;;;;;11.50;2.55;;;;;;;20.38;50.40;100907.56;5026554;28;98697;-67
2022/10/02 10:09:44;;;;;;;10.60;2.63;;;;;;;20.11;50.76;100909.53;5026375;28;96796;-66
2022/10/02 10:12:36;;;;;;;8.18;2.75;;;;;;;20.07;51.48;100919.66;5030707;28;96792;-66
2022/10/02 10:15:40;;;;;;;10.00;3.08;;;;;;;19.46;52.26;100925.81;5028244;28;98919;-67
2022/10/02 10:18:51;;;;;;;15.55;3.70;;;;;;;19.09;54.79;100933.69;5018943;27;98405;-67
2022/10/02 10:21:55;;;;;;;16.33;3.72;;;;;;;18.83;56.30;100929.22;5025816;27;96937;-68
2022/10/02 10:25:10;;;;;;;7.18;1.90;;;;;;;18.08;54.99;100929.66;5029893;28;96844;-67
2022/10/02 10:28:07;;;;;;;9.43;2.30;;;;;;;18.11;56.81;100934.84;4999056;28;98871;-67
2022/10/02 10:30:50;;;;;;;10.43;2.78;;;;;;;18.08;58.50;100932.34;5025683;28;99144;-67
2022/10/02 10:34:01;;;;;;;13.95;2.60;;;;;;;18.89;56.77;100934.16;5025566;28;96896;-66
2022/10/02 10:40:02;;;;;;;11.50;2.10;;;;;;;19.31;53.49;100941.09;5023523;28;98738;-68
2022/10/02 10:42:52;;;;;;;7.28;2.00;;;;;;;18.72;55.65;100942.44;5008758;28;98928;-68
2022/10/02 10:45:39;;;;;;;6.53;1.92;;;;;;;18.75;54.58;100942.25;5025268;28;97133;-67
2022/10/02 10:48:23;;;;;;;;;;;;;;;18.48;55.07;100950.22;5029232;27;97535;-68
2022/10/02 10:51:01;;;;;;;5.15;1.95;;;;;;;18.89;54.97;100952.03;5031328;28;99209;-68
2022/10/02 10:54:02;;;;;;;9.70;2.78;;;;;;;17.95;58.68;100942.97;5030276;28;97980;-67
2022/10/02 10:56:37;;;;;;;9.52;2.55;;;;;;;18.36;58.83;100937.66;5029270;28;97177;-67
2022/10/02 10:59:32;;;;;;;6.25;2.60;;;;;;;18.42;58.85;100939.94;5030984;28;97256;-67
2022/10/02 11:02:21;;;;;;;6.43;2.17;;;;;;;18.76;58.21;100935.94;5026024;28;98059;-67
2022/10/02 11:05:14;;;;;;;9.98;2.75;;;;;;;19.05;57.10;100929.47;5032423;27;97223;-69
2022/10/02 11:08:05;;;;;;;8.27;2.70;;;;;;;19.30;57.08;100935.81;5025436;28;97130;-68
2022/10/02 11:10:47;;;;;;;11.23;2.95;;;;;;;20.04;55.33;100935.09;5031026;28;97333;-67
2022/10/02 11:13:34;;;;;;;11.63;3.00;;;;;;;20.40;54.20;100929.78;5030114;28;98434;-67
2022/10/02 11:16:17;;;;;;;8.13;3.73;;;;;;;20.72;53.27;100934.59;5029192;28;98800;-67
2022/10/02 11:19:17;;;;;;;8.18;3.13;;;;;;;20.89;53.11;100939.53;5030451;28;96926;-67
2022/10/02 11:22:14;;;;;;;11.27;3.63;;;;;;;20.82;52.86;100933.78;5027713;28;96714;-68
2022/10/02 11:25:00;;;;;;;11.27;4.45;;;;;;;20.11;53.82;100947.09;5027040;28;101752;-68
2022/10/02 11:27:48;;;;;;;9.95;2.58;;;;;;;19.58;55.56;100949.06;5027691;28;102532;-69
2022/10/02 11:30:25;;;;;;;11.63;2.97;;;;;;;19.15;56.52;100936.91;5029634;28;97079;-67
2022/10/02 11:33:14;;;;;;;9.00;3.33;;;;;;;18.58;56.96;100918.38;5026502;27;98766;-67
2022/10/02 11:35:57;;;;;;;9.73;2.50;;;;;;;18.51;57.16;100912.56;5027130;28;98197;-68
2022/10/02 11:39:14;;;;;;;7.13;2.67;;;;;;;18.36;57.21;100920.75;5027907;28;98789;-67
2022/10/02 11:42:04;;;;;;;9.32;2.60;;;;;;;18.29;57.87;100922.97;5004233;27;97421;-67
2022/10/02 11:45:01;;;;;;;7.40;2.83;;;;;;;18.34;58.61;100926.19;5030475;28;97272;-67
2022/10/02 11:47:49;;;;;;;10.87;2.83;;;;;;;18.63;56.80;100922.50;5026994;28;102311;-67
2022/10/02 11:50:52;;;;;;;9.90;2.75;;;;;;;19.23;55.05;100921.16;4992049;28;97410;-68
2022/10/02 11:53:35;;;;;;;9.90;2.85;;;;;;;18.97;55.33;100920.25;5028088;27;97030;-68
2022/10/02 11:56:21;;;;;;;11.50;2.45;;;;;;;18.97;55.27;100926.44;5026076;28;97458;-67
2022/10/02 11:59:06;;;;;;;9.98;2.53;;;;;;;19.18;53.78;100923.28;5028987;28;98476;-66
2022/10/02 12:01:44;;;;;;;9.05;3.00;;;;;;;18.71;55.09;100916.63;5027629;28;97826;-67
2022/10/02 12:04:23;;;;;;;8.32;2.88;;;;;;;19.11;55.11;100917.47;5031818;27;96907;-67
2022/10/02 12:07:10;;;;;;;10.38;2.90;;;;;;;19.20;54.35;100916.84;5029149;28;97217;-67
2022/10/02 12:09:53;;;;;;;12.52;3.03;;;;;;;19.19;53.30;100920.50;5026067;28;97971;-67
2022/10/02 12:12:42;;;;;;;10.82;2.78;;;;;;;19.46;53.52;100918.63;5028095;27;99087;-67
2022/10/02 12:15:21;;;;;;;11.55;2.70;;;;;;;18.90;53.91;100917.13;5027590;28;97112;-67
2022/10/02 12:18:06;;;;;;;8.63;2.83;;;;;;;18.73;54.12;100916.53;5025024;28;98828;-67
2022/10/02 12:27:02;;;;;;;7.93;2.65;;;;;;;19.28;53.18;100925.22;5027392;28;97361;-66
2022/10/02 12:29:42;;;;;;;7.90;3.10;;;;;;;19.25;52.93;100924.56;5026001;28;96895;-67
2022/10/02 12:32:22;;;;;;;11.95;2.92;;;;;;;19.68;51.97;100922.50;5031519;28;99036;-66
2022/10/02 12:35:01;;;;;;;7.05;2.60;;;;;;;19.99;50.94;100923.84;5029323;28;97658;-68